sensor_id;sensor_type;location;lat;lon;timestamp;pressure;altitude;pressure_sealevel;temperature;humidity
14041;BME280;7095;51.388;6.196;2023-04-29T00:02:18;103569.44;;;-145.32;100.00
14041;BME280;7095;51.388;6.196;2023-04-29T00:04:47;103053.06;;;-145.32;100.00
14041;BME280;7095;51.388;6.196;2023-04-29T00:07:16;102278.66;;;-145.32;100.00
14041;BME280;7095;51.388;6.196;2023-04-29T00:09:44;102278.66;;;-145.32;100.00
14041;BME280;7095;51.388;6.196;2023-04-29T00:12:12;101762.47;;;-145.32;100.00
14041;BME280;7095;51.388;6.196;2023-04-29T00:14:41;102020.53;;;-145.32;100.00
14041;BME280;7095;51.388;6.196;2023-04-29T00:17:11;102020.53;;;-145.32;100.00
14041;BME280;7095;51.388;6.196;2023-04-29T00:19:40;101246.34;;;-145.32;100.00
14041;BME280;7095;51.388;6.196;2023-04-29T00:22:08;102020.53;;;-145.32;100.00
14041;BME280;7095;51.388;6.196;2023-04-29T00:24:37;101246.34;;;-145.32;100.00
14041;BME280;7095;51.388;6.196;2023-04-29T00:27:06;100472.31;;;-145.32;100.00
14041;BME280;7095;51.388;6.196;2023-04-29T00:29:35;101246.34;;;-145.32;100.00
14041;BME280;7095;51.388;6.196;2023-04-29T00:32:04;100988.31;;;-145.32;100.00
14041;BME280;7095;51.388;6.196;2023-04-29T00:34:34;100988.31;;;-145.32;100.00
14041;BME280;7095;51.388;6.196;2023-04-29T00:37:02;101762.47;;;-145.32;100.00
14041;BME280;7095;51.388;6.196;2023-04-29T00:39:31;101246.34;;;-145.32;100.00
14041;BME280;7095;51.388;6.196;2023-04-29T00:41:59;101246.34;;;-145.32;100.00
14041;BME280;7095;51.388;6.196;2023-04-29T00:44:29;101504.38;;;-145.32;100.00
14041;BME280;7095;51.388;6.196;2023-04-29T00:46:58;101246.34;;;-145.32;100.00
14041;BME280;7095;51.388;6.196;2023-04-29T00:49:27;100214.34;;;-145.32;100.00
14041;BME280;7095;51.388;6.196;2023-04-29T00:51:58;99956.41;;;-145.32;100.00
14041;BME280;7095;51.388;6.196;2023-04-29T00:54:26;99698.47;;;-145.32;100.00
14041;BME280;7095;51.388;6.196;2023-04-29T00:56:55;99182.69;;;-145.32;100.00
14041;BME280;7095;51.388;6.196;2023-04-29T00:59:32;98666.94;;;-145.32;100.00
14041;BME280;7095;51.388;6.196;2023-04-29T01:02:28;99182.69;;;-145.32;100.00
14041;BME280;7095;51.388;6.196;2023-04-29T01:04:57;98924.81;;;-145.32;100.00
14041;BME280;7095;51.388;6.196;2023-04-29T01:07:32;98924.81;;;-145.32;100.00
14041;BME280;7095;51.388;6.196;2023-04-29T01:10:04;99440.56;;;-145.32;100.00
14041;BME280;7095;51.388;6.196;2023-04-29T01:12:40;99956.41;;;-145.32;100.00
14041;BME280;7095;51.388;6.196;2023-04-29T01:15:20;100472.31;;;-145.32;100.00
14041;BME280;7095;51.388;6.196;2023-04-29T01:17:54;100214.34;;;-145.32;100.00
14041;BME280;7095;51.388;6.196;2023-04-29T01:20:27;100472.31;;;-145.32;100.00
14041;BME280;7095;51.388;6.196;2023-04-29T01:22:59;100214.34;;;-145.32;100.00
14041;BME280;7095;51.388;6.196;2023-04-29T01:25:29;100214.34;;;-145.32;100.00
14041;BME280;7095;51.388;6.196;2023-04-29T01:28:39;98924.81;;;-145.32;100.00
14041;BME280;7095;51.388;6.196;2023-04-29T01:31:18;98924.81;;;-145.32;100.00
14041;BME280;7095;51.388;6.196;2023-04-29T01:33:52;98409.13;;;-145.32;100.00
14041;BME280;7095;51.388;6.196;2023-04-29T01:36:34;97635.72;;;-145.32;100.00
14041;BME280;7095;51.388;6.196;2023-04-29T01:39:09;97377.97;;;-145.32;100.00
14041;BME280;7095;51.388;6.196;2023-04-29T01:41:52;97120.22;;;-145.32;100.00
14041;BME280;7095;51.388;6.196;2023-04-29T01:44:28;96089.47;;;-145.32;100.00
14041;BME280;7095;51.388;6.196;2023-04-29T01:47:00;96862.50;;;-145.32;100.00
14041;BME280;7095;51.388;6.196;2023-04-29T01:49:35;97377.97;;;-145.32;100.00
14041;BME280;7095;51.388;6.196;2023-04-29T01:52:04;96347.13;;;-145.32;100.00
14041;BME280;7095;51.388;6.196;2023-04-29T01:54:35;96862.50;;;-145.32;100.00
14041;BME280;7095;51.388;6.196;2023-04-29T01:57:05;97377.97;;;-145.32;100.00
14041;BME280;7095;51.388;6.196;2023-04-29T01:59:55;96862.50;;;-145.32;100.00
14041;BME280;7095;51.388;6.196;2023-04-29T02:02:30;97377.97;;;-145.32;100.00
14041;BME280;7095;51.388;6.196;2023-04-29T02:05:09;96862.50;;;-145.32;100.00
14041;BME280;7095;51.388;6.196;2023-04-29T02:07:43;97635.72;;;-145.32;100.00
14041;BME280;7095;51.388;6.196;2023-04-29T02:10:12;96347.13;;;-145.32;100.00
14041;BME280;7095;51.388;6.196;2023-04-29T02:12:44;97377.97;;;-145.32;100.00
14041;BME280;7095;51.388;6.196;2023-04-29T02:15:13;97377.97;;;-145.32;100.00
14041;BME280;7095;51.388;6.196;2023-04-29T02:17:43;96604.81;;;-145.32;100.00
14041;BME280;7095;51.388;6.196;2023-04-29T02:20:12;95831.81;;;-145.32;100.00
14041;BME280;7095;51.388;6.196;2023-04-29T02:22:41;96089.47;;;-145.32;100.00
14041;BME280;7095;51.388;6.196;2023-04-29T02:25:10;96347.13;;;-145.32;100.00
14041;BME280;7095;51.388;6.196;2023-04-29T02:27:38;96347.13;;;-145.32;100.00
14041;BME280;7095;51.388;6.196;2023-04-29T02:30:09;96089.47;;;-145.32;100.00
14041;BME280;7095;51.388;6.196;2023-04-29T02:32:39;95574.19;;;-145.32;100.00
14041;BME280;7095;51.388;6.196;2023-04-29T02:35:08;96089.47;;;-145.32;100.00
14041;BME280;7095;51.388;6.196;2023-04-29T02:37:37;96347.13;;;-145.32;100.00
14041;BME280;7095;51.388;6.196;2023-04-29T02:40:06;96862.50;;;-145.32;100.00
14041;BME280;7095;51.388;6.196;2023-04-29T02:42:35;97120.22;;;-145.32;100.00
14041;BME280;7095;51.388;6.196;2023-04-29T02:45:04;97120.22;;;-145.32;100.00
14041;BME280;7095;51.388;6.196;2023-04-29T02:47:34;97635.72;;;-145.32;100.00
14041;BME280;7095;51.388;6.196;2023-04-29T02:50:04;97893.50;;;-145.32;100.00
14041;BME280;7095;51.388;6.196;2023-04-29T02:52:33;98151.31;;;-145.32;100.00
14041;BME280;7095;51.388;6.196;2023-04-29T02:55:02;98666.94;;;-145.32;100.00
14041;BME280;7095;51.388;6.196;2023-04-29T02:57:30;99182.69;;;-145.32;100.00
14041;BME280;7095;51.388;6.196;2023-04-29T03:00:00;99698.47;;;-145.32;100.00
14041;BME280;7095;51.388;6.196;2023-04-29T03:02:30;100730.31;;;-145.32;100.00
14041;BME280;7095;51.388;6.196;2023-04-29T03:05:01;100472.31;;;-145.32;100.00
14041;BME280;7095;51.388;6.196;2023-04-29T03:07:29;101246.34;;;-145.32;100.00
14041;BME280;7095;51.388;6.196;2023-04-29T03:09:58;101504.38;;;-145.32;100.00
14041;BME280;7095;51.388;6.196;2023-04-29T03:12:32;101504.38;;;-145.32;100.00
14041;BME280;7095;51.388;6.196;2023-04-29T03:15:01;101762.47;;;-145.32;100.00
14041;BME280;7095;51.388;6.196;2023-04-29T03:17:30;102536.75;;;-145.32;100.00
14041;BME280;7095;51.388;6.196;2023-04-29T03:19:59;103569.44;;;-145.32;100.00
14041;BME280;7095;51.388;6.196;2023-04-29T03:22:29;103827.66;;;-145.32;100.00
14041;BME280;7095;51.388;6.196;2023-04-29T03:24:57;104602.44;;;-145.32;100.00
14041;BME280;7095;51.388;6.196;2023-04-29T03:27:26;104860.72;;;-145.32;100.00
14041;BME280;7095;51.388;6.196;2023-04-29T03:29:55;105119.03;;;-145.32;100.00
14041;BME280;7095;51.388;6.196;2023-04-29T03:32:23;105635.72;;;-145.32;100.00
14041;BME280;7095;51.388;6.196;2023-04-29T03:34:52;106152.47;;;-145.32;100.00
14041;BME280;7095;51.388;6.196;2023-04-29T03:37:45;106152.47;;;-145.32;100.00
14041;BME280;7095;51.388;6.196;2023-04-29T03:40:21;106410.88;;;-145.32;100.00
14041;BME280;7095;51.388;6.196;2023-04-29T03:42:50;106669.31;;;-145.32;100.00
14041;BME280;7095;51.388;6.196;2023-04-29T03:45:19;107444.69;;;-145.32;100.00
14041;BME280;7095;51.388;6.196;2023-04-29T03:47:48;107703.22;;;-145.32;100.00
14041;BME280;7095;51.388;6.196;2023-04-29T03:50:17;107444.69;;;-145.32;100.00
14041;BME280;7095;51.388;6.196;2023-04-29T03:52:48;107444.69;;;-145.32;100.00
14041;BME280;7095;51.388;6.196;2023-04-29T03:55:18;107703.22;;;-145.32;100.00
14041;BME280;7095;51.388;6.196;2023-04-29T03:57:47;107961.72;;;-145.32;100.00
14041;BME280;7095;51.388;6.196;2023-04-29T04:00:17;107961.72;;;-145.32;100.00
14041;BME280;7095;51.388;6.196;2023-04-29T04:02:51;108220.28;;;-145.32;100.00
14041;BME280;7095;51.388;6.196;2023-04-29T04:05:20;108220.28;;;-145.32;100.00
14041;BME280;7095;51.388;6.196;2023-04-29T04:08:00;108220.28;;;-145.32;100.00
14041;BME280;7095;51.388;6.196;2023-04-29T04:10:48;108478.84;;;-145.32;100.00
14041;BME280;7095;51.388;6.196;2023-04-29T04:13:30;108478.84;;;-145.32;100.00
14041;BME280;7095;51.388;6.196;2023-04-29T04:15:59;108737.41;;;-145.32;100.00
14041;BME280;7095;51.388;6.196;2023-04-29T04:18:29;108478.84;;;-145.32;100.00
14041;BME280;7095;51.388;6.196;2023-04-29T04:21:04;108737.41;;;-145.32;100.00
14041;BME280;7095;51.388;6.196;2023-04-29T04:23:35;108996.00;;;-145.32;100.00
14041;BME280;7095;51.388;6.196;2023-04-29T04:26:07;108996.00;;;-145.32;100.00
14041;BME280;7095;51.388;6.196;2023-04-29T04:28:58;108737.41;;;-145.32;100.00
14041;BME280;7095;51.388;6.196;2023-04-29T04:31:53;108737.41;;;-145.32;100.00
14041;BME280;7095;51.388;6.196;2023-04-29T04:34:22;108478.84;;;-145.32;100.00
14041;BME280;7095;51.388;6.196;2023-04-29T04:36:54;108737.41;;;-145.32;100.00
14041;BME280;7095;51.388;6.196;2023-04-29T04:39:24;108737.41;;;-145.32;100.00
14041;BME280;7095;51.388;6.196;2023-04-29T04:41:55;108737.41;;;-145.32;100.00
14041;BME280;7095;51.388;6.196;2023-04-29T04:44:26;108737.41;;;-145.32;100.00
14041;BME280;7095;51.388;6.196;2023-04-29T04:47:03;108996.00;;;-145.32;100.00
14041;BME280;7095;51.388;6.196;2023-04-29T04:49:51;108996.00;;;-145.32;100.00
14041;BME280;7095;51.388;6.196;2023-04-29T04:52:21;108737.41;;;-145.32;100.00
14041;BME280;7095;51.388;6.196;2023-04-29T04:55:05;108737.41;;;-145.32;100.00
14041;BME280;7095;51.388;6.196;2023-04-29T04:57:35;108737.41;;;-145.32;100.00
14041;BME280;7095;51.388;6.196;2023-04-29T05:00:05;108737.41;;;-145.32;100.00
14041;BME280;7095;51.388;6.196;2023-04-29T05:02:34;108996.00;;;-145.32;100.00
14041;BME280;7095;51.388;6.196;2023-04-29T05:05:03;108737.41;;;-145.32;100.00
14041;BME280;7095;51.388;6.196;2023-04-29T05:07:34;108478.84;;;-145.32;100.00
14041;BME280;7095;51.388;6.196;2023-04-29T05:10:06;108478.84;;;-145.32;100.00
14041;BME280;7095;51.388;6.196;2023-04-29T05:12:43;108478.84;;;-145.32;100.00
14041;BME280;7095;51.388;6.196;2023-04-29T05:15:11;108220.28;;;-145.32;100.00
14041;BME280;7095;51.388;6.196;2023-04-29T05:17:42;107961.72;;;-145.32;100.00
14041;BME280;7095;51.388;6.196;2023-04-29T05:20:11;108220.28;;;-145.32;100.00
14041;BME280;7095;51.388;6.196;2023-04-29T05:22:40;108220.28;;;-145.32;100.00
14041;BME280;7095;51.388;6.196;2023-04-29T05:25:10;108478.84;;;-145.32;100.00
14041;BME280;7095;51.388;6.196;2023-04-29T05:27:39;107961.72;;;-145.32;100.00
14041;BME280;7095;51.388;6.196;2023-04-29T05:30:11;107444.69;;;-145.32;100.00
14041;BME280;7095;51.388;6.196;2023-04-29T05:32:40;107961.72;;;-145.32;100.00
14041;BME280;7095;51.388;6.196;2023-04-29T05:35:12;107961.72;;;-145.32;100.00
14041;BME280;7095;51.388;6.196;2023-04-29T05:37:43;107961.72;;;-145.32;100.00
14041;BME280;7095;51.388;6.196;2023-04-29T05:40:32;107703.22;;;-145.32;100.00
14041;BME280;7095;51.388;6.196;2023-04-29T05:43:19;107444.69;;;-145.32;100.00
14041;BME280;7095;51.388;6.196;2023-04-29T05:45:47;107444.69;;;-145.32;100.00
14041;BME280;7095;51.388;6.196;2023-04-29T05:48:16;107703.22;;;-145.32;100.00
14041;BME280;7095;51.388;6.196;2023-04-29T05:50:44;107444.69;;;-145.32;100.00
14041;BME280;7095;51.388;6.196;2023-04-29T05:53:14;106927.75;;;-145.32;100.00
14041;BME280;7095;51.388;6.196;2023-04-29T05:55:44;106927.75;;;-145.32;100.00
14041;BME280;7095;51.388;6.196;2023-04-29T05:58:15;105894.09;;;-145.32;100.00
14041;BME280;7095;51.388;6.196;2023-04-29T06:00:44;105635.72;;;-145.32;100.00
14041;BME280;7095;51.388;6.196;2023-04-29T06:03:20;105894.09;;;-145.32;100.00
14041;BME280;7095;51.388;6.196;2023-04-29T06:06:12;105377.34;;;-145.32;100.00
14041;BME280;7095;51.388;6.196;2023-04-29T06:09:00;105635.72;;;-145.32;100.00
14041;BME280;7095;51.388;6.196;2023-04-29T06:11:33;105377.34;;;-145.32;100.00
14041;BME280;7095;51.388;6.196;2023-04-29T06:14:02;105119.03;;;-145.32;100.00
14041;BME280;7095;51.388;6.196;2023-04-29T06:16:31;105377.34;;;-145.32;100.00
14041;BME280;7095;51.388;6.196;2023-04-29T06:19:00;104602.44;;;-145.32;100.00
14041;BME280;7095;51.388;6.196;2023-04-29T06:21:29;104344.16;;;-145.32;100.00
14041;BME280;7095;51.388;6.196;2023-04-29T06:23:59;104344.16;;;-145.32;100.00
14041;BME280;7095;51.388;6.196;2023-04-29T06:26:27;104602.44;;;-145.32;100.00
14041;BME280;7095;51.388;6.196;2023-04-29T06:28:58;103827.66;;;-145.32;100.00
14041;BME280;7095;51.388;6.196;2023-04-29T06:31:26;103827.66;;;-145.32;100.00
14041;BME280;7095;51.388;6.196;2023-04-29T06:34:00;103311.25;;;-145.32;100.00
14041;BME280;7095;51.388;6.196;2023-04-29T06:36:29;103569.44;;;-145.32;100.00
14041;BME280;7095;51.388;6.196;2023-04-29T06:39:01;103569.44;;;-145.32;100.00
14041;BME280;7095;51.388;6.196;2023-04-29T06:41:55;103311.25;;;-145.32;100.00
14041;BME280;7095;51.388;6.196;2023-04-29T06:44:53;103053.06;;;-145.32;100.00
14041;BME280;7095;51.388;6.196;2023-04-29T06:47:36;102278.66;;;-145.32;100.00
14041;BME280;7095;51.388;6.196;2023-04-29T06:50:10;102794.91;;;-145.32;100.00
14041;BME280;7095;51.388;6.196;2023-04-29T06:52:39;102536.75;;;-145.32;100.00
14041;BME280;7095;51.388;6.196;2023-04-29T06:55:09;102794.91;;;-145.32;100.00
14041;BME280;7095;51.388;6.196;2023-04-29T06:57:41;102278.66;;;-145.32;100.00
14041;BME280;7095;51.388;6.196;2023-04-29T07:00:11;102278.66;;;-145.32;100.00
14041;BME280;7095;51.388;6.196;2023-04-29T07:02:42;103311.25;;;-145.32;100.00
14041;BME280;7095;51.388;6.196;2023-04-29T07:05:11;103053.06;;;-145.32;100.00
14041;BME280;7095;51.388;6.196;2023-04-29T07:07:42;101762.47;;;-145.32;100.00
14041;BME280;7095;51.388;6.196;2023-04-29T07:10:11;101762.47;;;-145.32;100.00
14041;BME280;7095;51.388;6.196;2023-04-29T07:12:39;100988.31;;;-145.32;100.00
14041;BME280;7095;51.388;6.196;2023-04-29T07:15:08;98666.94;;;-145.32;100.00
14041;BME280;7095;51.388;6.196;2023-04-29T07:17:38;99182.69;;;-145.32;100.00
14041;BME280;7095;51.388;6.196;2023-04-29T07:20:08;98924.81;;;-145.32;100.00
14041;BME280;7095;51.388;6.196;2023-04-29T07:22:38;98924.81;;;-145.32;100.00
14041;BME280;7095;51.388;6.196;2023-04-29T07:25:07;97120.22;;;-145.32;100.00
14041;BME280;7095;51.388;6.196;2023-04-29T07:27:37;96089.47;;;-145.32;100.00
14041;BME280;7095;51.388;6.196;2023-04-29T07:30:19;96089.47;;;-145.32;100.00
14041;BME280;7095;51.388;6.196;2023-04-29T07:32:50;93256.44;;;-145.32;100.00
14041;BME280;7095;51.388;6.196;2023-04-29T07:35:18;94028.84;;;-145.32;100.00
14041;BME280;7095;51.388;6.196;2023-04-29T07:37:48;92226.81;;;-145.32;100.00
14041;BME280;7095;51.388;6.196;2023-04-29T07:40:17;90940.22;;;-145.32;100.00
14041;BME280;7095;51.388;6.196;2023-04-29T07:42:46;92226.81;;;-145.32;100.00
14041;BME280;7095;51.388;6.196;2023-04-29T07:45:16;89654.13;;;-145.32;100.00
14041;BME280;7095;51.388;6.196;2023-04-29T07:47:45;89911.31;;;-145.32;100.00
14041;BME280;7095;51.388;6.196;2023-04-29T07:50:16;89396.97;;;-145.32;100.00
14041;BME280;7095;51.388;6.196;2023-04-29T07:52:44;83487.44;;;-145.32;100.00
14041;BME280;7095;51.388;6.196;2023-04-29T07:55:15;84514.44;;;-145.32;100.00
14041;BME280;7095;51.388;6.196;2023-04-29T07:57:44;82460.72;;;-145.32;100.00
14041;BME280;7095;51.388;6.196;2023-04-29T08:00:13;81434.31;;;-145.32;100.00
14041;BME280;7095;51.388;6.196;2023-04-29T08:02:42;72466.34;;;-145.32;100.00
14041;BME280;7095;51.388;6.196;2023-04-29T08:05:17;70212.03;;;-145.32;100.00
14041;BME280;7095;51.388;6.196;2023-04-29T08:07:50;63290.50;;;-145.32;100.00
14041;BME280;7095;51.388;6.196;2023-04-29T08:10:19;62078.50;;;-145.32;100.00
14041;BME280;7095;51.388;6.196;2023-04-29T08:12:49;60364.84;;;-145.32;100.00
14041;BME280;7095;51.388;6.196;2023-04-29T08:15:17;62871.84;;;-145.32;100.00
14041;BME280;7095;51.388;6.196;2023-04-29T08:17:46;61253.44;;;-145.32;100.00
14041;BME280;7095;51.388;6.196;2023-04-29T08:20:16;61088.06;;;-145.32;100.00
14041;BME280;7095;51.388;6.196;2023-04-29T08:22:45;62471.16;;;-145.32;100.00
14041;BME280;7095;51.388;6.196;2023-04-29T08:25:14;59639.81;;;-145.32;100.00
14041;BME280;7095;51.388;6.196;2023-04-29T08:27:43;61588.22;;;-145.32;100.00
14041;BME280;7095;51.388;6.196;2023-04-29T08:30:12;60508.28;;;-145.32;100.00
14041;BME280;7095;51.388;6.196;2023-04-29T08:32:41;59544.22;;;-145.32;100.00
14041;BME280;7095;51.388;6.196;2023-04-29T08:35:10;59759.31;;;-145.32;100.00
14041;BME280;7095;51.388;6.196;2023-04-29T08:37:40;58329.56;;;-145.32;100.00
14041;BME280;7095;51.388;6.196;2023-04-29T08:40:09;58094.63;;;-145.32;100.00
14041;BME280;7095;51.388;6.196;2023-04-29T08:42:38;57784.09;;;-145.32;100.00
14041;BME280;7095;51.388;6.196;2023-04-29T08:45:07;58658.06;;;-145.32;100.00
14041;BME280;7095;51.388;6.196;2023-04-29T08:47:37;58815.38;;;-145.32;100.00
14041;BME280;7095;51.388;6.196;2023-04-29T08:50:08;58437.06;;;-145.32;100.00
14041;BME280;7095;51.388;6.196;2023-04-29T08:52:36;57776.13;;;-145.32;100.00
14041;BME280;7095;51.388;6.196;2023-04-29T08:55:07;58341.50;;;-145.32;100.00
14041;BME280;7095;51.388;6.196;2023-04-29T08:57:37;58831.28;;;-145.32;100.00
14041;BME280;7095;51.388;6.196;2023-04-29T09:00:07;58237.97;;;-145.32;100.00
14041;BME280;7095;51.388;6.196;2023-04-29T09:02:42;57017.81;;;-145.32;100.00
14041;BME280;7095;51.388;6.196;2023-04-29T09:05:12;57804.00;;;-145.32;100.00
14041;BME280;7095;51.388;6.196;2023-04-29T09:07:41;58190.19;;;-145.32;100.00
14041;BME280;7095;51.388;6.196;2023-04-29T09:10:13;57849.78;;;-145.32;100.00
14041;BME280;7095;51.388;6.196;2023-04-29T09:12:43;57792.06;;;-145.32;100.00
14041;BME280;7095;51.388;6.196;2023-04-29T09:15:12;58190.19;;;-145.32;100.00
14041;BME280;7095;51.388;6.196;2023-04-29T09:17:42;58504.75;;;-145.32;100.00
14041;BME280;7095;51.388;6.196;2023-04-29T09:20:27;58476.88;;;-145.32;100.00
14041;BME280;7095;51.388;6.196;2023-04-29T09:22:58;58275.81;;;-145.32;100.00
14041;BME280;7095;51.388;6.196;2023-04-29T09:25:29;57766.19;;;-145.32;100.00
14041;BME280;7095;51.388;6.196;2023-04-29T09:27:58;58287.75;;;-145.32;100.00
14041;BME280;7095;51.388;6.196;2023-04-29T09:30:44;57583.06;;;-145.32;100.00
14041;BME280;7095;51.388;6.196;2023-04-29T09:33:15;56876.50;;;-145.32;100.00
14041;BME280;7095;51.388;6.196;2023-04-29T09:35:47;56239.75;;;-145.32;100.00
14041;BME280;7095;51.388;6.196;2023-04-29T09:38:16;56512.34;;;-145.32;100.00
14041;BME280;7095;51.388;6.196;2023-04-29T09:40:46;56671.53;;;-145.32;100.00
14041;BME280;7095;51.388;6.196;2023-04-29T09:43:25;55985.09;;;-145.32;100.00
14041;BME280;7095;51.388;6.196;2023-04-29T09:45:54;56291.50;;;-145.32;100.00
14041;BME280;7095;51.388;6.196;2023-04-29T09:48:30;56128.34;;;-145.32;100.00
14041;BME280;7095;51.388;6.196;2023-04-29T09:51:01;56192.00;;;-145.32;100.00
14041;BME280;7095;51.388;6.196;2023-04-29T09:53:30;56001.00;;;-145.32;100.00
14041;BME280;7095;51.388;6.196;2023-04-29T09:56:05;55627.00;;;-145.32;100.00
14041;BME280;7095;51.388;6.196;2023-04-29T09:58:35;55726.47;;;-145.32;100.00
14041;BME280;7095;51.388;6.196;2023-04-29T10:01:05;55678.72;;;-145.32;100.00
14041;BME280;7095;51.388;6.196;2023-04-29T10:03:35;55467.84;;;-145.32;100.00
14041;BME280;7095;51.388;6.196;2023-04-29T10:06:06;55465.88;;;-145.32;100.00
14041;BME280;7095;51.388;6.196;2023-04-29T10:08:35;55457.91;;;-145.32;100.00
14041;BME280;7095;51.388;6.196;2023-04-29T10:11:05;55579.25;;;-145.32;100.00
14041;BME280;7095;51.388;6.196;2023-04-29T10:13:34;55356.47;;;-145.32;100.00
14041;BME280;7095;51.388;6.196;2023-04-29T10:16:14;55392.25;;;-145.32;100.00
14041;BME280;7095;51.388;6.196;2023-04-29T10:18:52;55314.69;;;-145.32;100.00
14041;BME280;7095;51.388;6.196;2023-04-29T10:21:26;54996.44;;;-145.32;100.00
14041;BME280;7095;51.388;6.196;2023-04-29T10:23:57;55113.78;;;-145.32;100.00
14041;BME280;7095;51.388;6.196;2023-04-29T10:26:28;55052.13;;;-145.32;100.00
14041;BME280;7095;51.388;6.196;2023-04-29T10:28:58;55201.31;;;-145.32;100.00
14041;BME280;7095;51.388;6.196;2023-04-29T10:31:27;55089.94;;;-145.32;100.00
14041;BME280;7095;51.388;6.196;2023-04-29T10:33:58;55181.41;;;-145.32;100.00
14041;BME280;7095;51.388;6.196;2023-04-29T10:36:30;54873.13;;;-145.32;100.00
14041;BME280;7095;51.388;6.196;2023-04-29T10:39:00;54668.28;;;-145.32;100.00
14041;BME280;7095;51.388;6.196;2023-04-29T10:41:36;54739.88;;;-145.32;100.00
14041;BME280;7095;51.388;6.196;2023-04-29T10:44:05;54729.94;;;-145.32;100.00
14041;BME280;7095;51.388;6.196;2023-04-29T10:46:35;54604.66;;;-145.32;100.00
14041;BME280;7095;51.388;6.196;2023-04-29T10:49:05;54423.69;;;-145.32;100.00
14041;BME280;7095;51.388;6.196;2023-04-29T10:51:38;54501.22;;;-145.32;100.00
14041;BME280;7095;51.388;6.196;2023-04-29T10:54:09;54562.88;;;-145.32;100.00
14041;BME280;7095;51.388;6.196;2023-04-29T10:56:40;54369.97;;;-145.32;100.00
14041;BME280;7095;51.388;6.196;2023-04-29T10:59:11;54479.34;;;-145.32;100.00
14041;BME280;7095;51.388;6.196;2023-04-29T11:01:43;54397.81;;;-145.32;100.00
14041;BME280;7095;51.388;6.196;2023-04-29T11:04:12;54369.97;;;-145.32;100.00
14041;BME280;7095;51.388;6.196;2023-04-29T11:06:44;54326.25;;;-145.32;100.00
14041;BME280;7095;51.388;6.196;2023-04-29T11:09:18;54320.28;;;-145.32;100.00
14041;BME280;7095;51.388;6.196;2023-04-29T11:11:57;54278.50;;;-145.32;100.00
14041;BME280;7095;51.388;6.196;2023-04-29T11:14:29;54346.13;;;-145.32;100.00
14041;BME280;7095;51.388;6.196;2023-04-29T11:17:00;54238.75;;;-145.32;100.00
14041;BME280;7095;51.388;6.196;2023-04-29T11:19:31;54210.91;;;-145.32;100.00
14041;BME280;7095;51.388;6.196;2023-04-29T11:22:13;54149.25;;;-145.32;100.00
14041;BME280;7095;51.388;6.196;2023-04-29T11:24:54;54010.06;;;-145.32;100.00
14041;BME280;7095;51.388;6.196;2023-04-29T11:27:28;53956.38;;;-145.32;100.00
14041;BME280;7095;51.388;6.196;2023-04-29T11:29:58;54008.09;;;-145.32;100.00
14041;BME280;7095;51.388;6.196;2023-04-29T11:32:29;54027.97;;;-145.32;100.00
14041;BME280;7095;51.388;6.196;2023-04-29T11:35:08;53950.44;;;-145.32;100.00
14041;BME280;7095;51.388;6.196;2023-04-29T11:37:38;53912.66;;;-145.32;100.00
14041;BME280;7095;51.388;6.196;2023-04-29T11:40:09;53853.00;;;-145.32;100.00
14041;BME280;7095;51.388;6.196;2023-04-29T11:42:45;53835.09;;;-145.32;100.00
14041;BME280;7095;51.388;6.196;2023-04-29T11:45:16;53841.06;;;-145.32;100.00
14041;BME280;7095;51.388;6.196;2023-04-29T11:47:46;53868.91;;;-145.32;100.00
14041;BME280;7095;51.388;6.196;2023-04-29T11:50:16;53845.03;;;-145.32;100.00
14041;BME280;7095;51.388;6.196;2023-04-29T11:52:47;53825.16;;;-145.32;100.00
14041;BME280;7095;51.388;6.196;2023-04-29T11:55:16;53769.50;;;-145.32;100.00
14041;BME280;7095;51.388;6.196;2023-04-29T11:57:48;53777.44;;;-145.32;100.00
14041;BME280;7095;51.388;6.196;2023-04-29T12:00:17;53721.78;;;-145.32;100.00
14041;BME280;7095;51.388;6.196;2023-04-29T12:02:46;53660.13;;;-145.32;100.00
14041;BME280;7095;51.388;6.196;2023-04-29T12:05:15;53672.06;;;-145.32;100.00
14041;BME280;7095;51.388;6.196;2023-04-29T12:07:48;53596.53;;;-145.32;100.00
14041;BME280;7095;51.388;6.196;2023-04-29T12:10:16;53592.53;;;-145.32;100.00
14041;BME280;7095;51.388;6.196;2023-04-29T12:12:46;53594.53;;;-145.32;100.00
14041;BME280;7095;51.388;6.196;2023-04-29T12:15:15;53592.53;;;-145.32;100.00
14041;BME280;7095;51.388;6.196;2023-04-29T12:17:44;53602.47;;;-145.32;100.00
14041;BME280;7095;51.388;6.196;2023-04-29T12:20:14;53612.44;;;-145.32;100.00
14041;BME280;7095;51.388;6.196;2023-04-29T12:22:42;53606.47;;;-145.32;100.00
14041;BME280;7095;51.388;6.196;2023-04-29T12:25:11;53616.41;;;-145.32;100.00
14041;BME280;7095;51.388;6.196;2023-04-29T12:27:40;53628.31;;;-145.32;100.00
14041;BME280;7095;51.388;6.196;2023-04-29T12:30:11;53604.47;;;-145.32;100.00
14041;BME280;7095;51.388;6.196;2023-04-29T12:32:39;53638.28;;;-145.32;100.00
14041;BME280;7095;51.388;6.196;2023-04-29T12:35:16;53632.31;;;-145.32;100.00
14041;BME280;7095;51.388;6.196;2023-04-29T12:37:48;53648.22;;;-145.32;100.00
14041;BME280;7095;51.388;6.196;2023-04-29T12:40:17;53654.19;;;-145.32;100.00
14041;BME280;7095;51.388;6.196;2023-04-29T12:42:47;53632.31;;;-145.32;100.00
14041;BME280;7095;51.388;6.196;2023-04-29T12:45:28;53642.25;;;-145.32;100.00
14041;BME280;7095;51.388;6.196;2023-04-29T12:47:57;53658.16;;;-145.32;100.00
14041;BME280;7095;51.388;6.196;2023-04-29T12:50:29;53668.09;;;-145.32;100.00
14041;BME280;7095;51.388;6.196;2023-04-29T12:52:59;53642.25;;;-145.32;100.00
14041;BME280;7095;51.388;6.196;2023-04-29T12:55:28;53634.28;;;-145.32;100.00
14041;BME280;7095;51.388;6.196;2023-04-29T12:57:57;53668.09;;;-145.32;100.00
14041;BME280;7095;51.388;6.196;2023-04-29T13:00:28;53674.06;;;-145.32;100.00